Time;durP1;ratioP1;P1;durP2;ratioP2;P2;SDS_P1;SDS_P2;PMS_P1;PMS_P2;Temp;Humidity;BMP_temperature;BMP_pressure;BME280_temperature;BME280_humidity;BME280_pressure;Samples;Min_cycle;Max_cycle;Signal;HPM_P1;HPM_P2
2023/03/12 00:02:11;;;;;;;5.20;4.70;;;;;;;5.22;98.95;97217.34;109056;1254;70589;-81
2023/03/12 00:04:40;;;;;;;6.20;5.30;;;;;;;5.24;98.79;97218.67;109069;1254;71684;-79
2023/03/12 00:07:07;;;;;;;6.10;5.50;;;;;;;5.17;99.08;97218.53;109410;1253;59378;-79
2023/03/12 00:09:37;;;;;;;5.90;5.30;;;;;;;5.12;98.69;97232.55;109045;1253;60174;-80
2023/03/12 00:12:08;;;;;;;6.90;5.30;;;;;;;5.15;98.05;97233.90;108608;1253;74859;-78
2023/03/12 00:14:34;;;;;;;6.50;5.80;;;;;;;5.13;98.15;97239.16;108704;1251;70241;-77
2023/03/12 00:17:01;;;;;;;8.90;6.90;;;;;;;5.05;98.09;97238.99;108328;1251;72365;-79
2023/03/12 00:19:28;;;;;;;5.70;5.00;;;;;;;5.02;97.94;97225.21;108607;1254;61639;-79
2023/03/12 00:21:56;;;;;;;6.30;5.70;;;;;;;5.01;97.82;97212.86;109022;1252;60536;-78
2023/03/12 00:24:26;;;;;;;7.30;6.50;;;;;;;4.94;98.10;97216.91;109255;1254;73498;-77
2023/03/12 00:26:54;;;;;;;6.50;5.80;;;;;;;4.86;98.14;97214.36;108993;1253;70140;-78
2023/03/12 00:29:20;;;;;;;6.00;5.40;;;;;;;4.90;98.00;97215.98;109053;1253;71220;-78
2023/03/12 00:31:47;;;;;;;6.20;5.00;;;;;;;4.89;98.39;97222.19;109324;1254;59204;-78
2023/03/12 00:34:14;;;;;;;5.90;5.10;;;;;;;4.81;98.35;97227.08;109235;1256;59370;-78
2023/03/12 00:36:40;;;;;;;5.20;4.70;;;;;;;4.75;98.73;97236.46;109183;1253;73634;-78
2023/03/12 00:39:10;;;;;;;6.10;5.00;;;;;;;4.79;98.79;97235.61;109278;1256;70207;-79
2023/03/12 00:41:46;;;;;;;5.90;5.30;;;;;;;4.81;98.77;97229.98;109445;1253;73014;-78
2023/03/12 00:44:13;;;;;;;5.70;5.00;;;;;;;4.76;98.89;97231.73;109183;1254;59459;-79
2023/03/12 00:46:39;;;;;;;4.90;4.50;;;;;;;4.74;98.96;97235.55;108487;1253;60195;-79
2023/03/12 00:49:06;;;;;;;5.00;4.40;;;;;;;4.77;98.37;97231.95;109053;1253;72653;-79
2023/03/12 00:51:33;;;;;;;5.70;5.20;;;;;;;4.76;98.38;97236.31;109346;1252;70142;-80
2023/03/12 00:54:00;;;;;;;5.80;4.20;;;;;;;4.65;98.38;97237.30;108801;1254;71609;-82
2023/03/12 00:56:26;;;;;;;5.20;3.80;;;;;;;4.62;98.83;97235.40;109550;1254;60069;-80
2023/03/12 00:58:53;;;;;;;4.80;3.70;;;;;;;4.67;98.60;97239.85;109453;1253;58030;-77
2023/03/12 01:01:20;;;;;;;4.70;4.20;;;;;;;4.64;98.72;97241.48;109446;1258;73793;-80
2023/03/12 01:03:50;;;;;;;6.20;4.10;;;;;;;4.58;98.98;97245.73;109439;1253;68923;-81
2023/03/12 01:06:17;;;;;;;3.10;2.70;;;;;;;4.63;98.90;97253.17;107926;1254;71568;-83
2023/03/12 01:08:45;;;;;;;3.20;2.80;;;;;;;4.66;98.43;97254.77;107605;1253;60480;-78
2023/03/12 01:11:13;;;;;;;2.90;2.40;;;;;;;4.56;98.14;97258.66;108508;1254;60274;-78
2023/03/12 01:13:40;;;;;;;2.40;1.80;;;;;;;4.47;97.33;97255.52;108214;1252;72687;-79
2023/03/12 01:16:07;;;;;;;2.10;1.30;;;;;;;4.45;96.17;97264.52;108447;1254;69119;-78
2023/03/12 01:18:33;;;;;;;2.40;1.60;;;;;;;4.35;95.92;97260.76;108446;1254;72901;-79
2023/03/12 01:21:01;;;;;;;1.00;0.90;;;;;;;4.29;95.77;97255.00;108228;1252;60590;-80
2023/03/12 01:23:28;;;;;;;1.70;1.30;;;;;;;4.27;95.55;97258.63;107972;1257;60083;-78
2023/03/12 01:25:55;;;;;;;1.70;1.20;;;;;;;4.19;95.87;97257.42;109388;1254;73823;-81
2023/03/12 01:28:22;;;;;;;1.30;1.20;;;;;;;4.07;95.70;97269.11;109389;1257;69444;-78
2023/03/12 01:30:49;;;;;;;1.70;1.20;;;;;;;4.06;95.73;97265.91;107888;1252;71518;-78
2023/03/12 01:33:17;;;;;;;2.90;1.70;;;;;;;4.06;96.39;97270.36;108826;1252;60372;-79
2023/03/12 01:35:44;;;;;;;2.60;1.40;;;;;;;4.00;96.50;97270.73;108879;1253;60361;-78
2023/03/12 01:38:12;;;;;;;2.10;1.30;;;;;;;3.91;96.41;97271.38;108585;1254;74818;-78
2023/03/12 01:40:39;;;;;;;4.40;1.90;;;;;;;3.89;96.22;97276.04;108717;1254;68513;-76
2023/03/12 01:43:23;;;;;;;2.50;1.40;;;;;;;3.86;95.77;97282.23;109181;1254;72530;-75
2023/03/12 01:46:31;;;;;;;1.70;1.20;;;;;;;3.72;96.32;97295.60;109403;1253;59195;-75
2023/03/12 01:49:28;;;;;;;1.60;1.10;;;;;;;3.66;95.85;97309.71;108638;1255;60328;-78
2023/03/12 01:52:06;;;;;;;2.00;1.00;;;;;;;3.62;95.11;97321.38;108533;1252;74006;-79
2023/03/12 01:54:49;;;;;;;0.70;0.70;;;;;;;3.45;94.63;97325.48;108709;1254;68458;-77
2023/03/12 01:57:34;;;;;;;0.90;0.70;;;;;;;3.31;93.59;97330.11;109399;1253;72841;-76
2023/03/12 02:00:07;;;;;;;1.70;0.70;;;;;;;3.20;93.29;97341.02;109107;1252;59215;-78
2023/03/12 02:02:41;;;;;;;1.30;0.90;;;;;;;3.00;93.75;97343.15;108976;1253;59349;-77
2023/03/12 02:05:18;;;;;;;4.00;2.00;;;;;;;2.85;93.97;97340.90;108319;1254;71556;-75
2023/03/12 02:07:46;;;;;;;2.30;1.30;;;;;;;2.83;93.68;97352.67;108637;1253;70146;-77
2023/03/12 02:10:13;;;;;;;2.50;1.40;;;;;;;2.76;93.44;97358.63;107828;1254;70935;-75
2023/03/12 02:12:41;;;;;;;1.30;0.90;;;;;;;2.61;94.10;97358.33;106475;1253;60411;-76
2023/03/12 02:15:08;;;;;;;1.30;0.70;;;;;;;2.54;94.47;97361.33;106426;1259;60418;-76
2023/03/12 02:17:39;;;;;;;1.00;0.70;;;;;;;2.53;93.89;97371.23;106068;1260;72893;-76
2023/03/12 02:20:18;;;;;;;1.10;0.90;;;;;;;2.41;94.06;97381.60;105952;1264;69629;-78
2023/03/12 02:22:51;;;;;;;1.60;0.80;;;;;;;2.31;94.77;97395.23;105930;1258;71341;-76
2023/03/12 02:25:30;;;;;;;0.70;0.60;;;;;;;2.32;94.78;97412.36;106186;1257;60800;-76
2023/03/12 02:27:58;;;;;;;2.30;1.60;;;;;;;2.21;95.02;97422.69;105712;1260;60527;-76
2023/03/12 02:30:27;;;;;;;2.20;1.30;;;;;;;2.08;95.70;97432.94;106010;1254;74736;-75
2023/03/12 02:32:59;;;;;;;2.00;1.10;;;;;;;2.10;95.80;97435.15;106190;1254;69721;-78
2023/03/12 02:35:26;;;;;;;1.50;1.00;;;;;;;2.05;95.06;97441.06;106811;1254;72240;-74
2023/03/12 02:37:54;;;;;;;2.40;1.30;;;;;;;1.94;95.49;97451.58;107460;1255;60686;-74
2023/03/12 02:40:35;;;;;;;1.40;1.00;;;;;;;1.88;95.81;97455.01;108414;1258;60499;-75
2023/03/12 02:43:06;;;;;;;1.40;0.80;;;;;;;1.92;95.37;97463.09;106092;1257;74019;-77
2023/03/12 02:45:35;;;;;;;1.40;1.00;;;;;;;1.87;95.17;97466.83;105823;1257;70722;-75
2023/03/12 02:48:02;;;;;;;1.60;0.80;;;;;;;1.75;95.21;97470.56;105988;1257;74353;-75
2023/03/12 02:50:31;;;;;;;1.20;1.00;;;;;;;1.71;94.75;97478.00;105862;1253;60504;-74
2023/03/12 02:52:58;;;;;;;1.00;0.90;;;;;;;1.72;94.16;97482.29;105746;1254;61531;-75
2023/03/12 02:55:26;;;;;;;1.10;0.90;;;;;;;1.64;94.50;97484.36;105468;1264;74163;-75
2023/03/12 02:57:53;;;;;;;1.70;1.20;;;;;;;1.58;94.86;97483.75;105562;1258;70248;-74
2023/03/12 03:00:20;;;;;;;1.50;1.30;;;;;;;1.56;94.75;97489.97;105793;1257;72276;-76
2023/03/12 03:02:50;;;;;;;2.10;1.70;;;;;;;1.61;94.05;97497.10;106125;1257;60693;-73
2023/03/12 03:05:19;;;;;;;1.40;1.20;;;;;;;1.58;93.92;97502.29;105896;1259;60476;-75
2023/03/12 03:07:48;;;;;;;1.10;1.00;;;;;;;1.46;93.90;97512.52;105842;1257;74771;-74
2023/03/12 03:10:17;;;;;;;1.40;1.10;;;;;;;1.34;93.87;97520.91;106059;1257;69449;-75
2023/03/12 03:12:44;;;;;;;1.50;1.30;;;;;;;1.33;93.63;97528.95;105832;1260;73454;-75
2023/03/12 03:15:11;;;;;;;1.80;1.20;;;;;;;1.34;93.85;97537.61;105856;1258;61473;-74
2023/03/12 03:17:39;;;;;;;2.00;1.30;;;;;;;1.29;93.67;97530.81;105523;1253;60412;-75
2023/03/12 03:20:10;;;;;;;3.50;2.60;;;;;;;1.22;92.99;97528.42;105523;1257;74753;-74
2023/03/12 03:22:42;;;;;;;7.30;4.70;;;;;;;1.24;92.67;97528.55;105668;1254;71483;-73
2023/03/12 03:25:10;;;;;;;4.20;2.90;;;;;;;1.17;92.56;97530.30;105666;1258;72789;-73
2023/03/12 03:27:36;;;;;;;1.90;1.50;;;;;;;1.05;93.02;97531.61;105955;1254;60441;-74
2023/03/12 03:30:05;;;;;;;7.40;4.00;;;;;;;0.99;93.55;97533.69;106210;1254;60533;-71
2023/03/12 03:32:33;;;;;;;16.40;10.60;;;;;;;1.06;93.56;97538.47;108877;1253;73149;-74
2023/03/12 03:35:05;;;;;;;8.00;5.20;;;;;;;1.16;93.78;97546.16;107979;1254;69228;-74
2023/03/12 03:37:33;;;;;;;2.20;1.60;;;;;;;1.09;92.88;97554.76;106054;1258;71324;-76
2023/03/12 03:40:00;;;;;;;4.80;2.70;;;;;;;0.97;93.46;97563.69;105946;1254;62211;-77
2023/03/12 03:42:27;;;;;;;7.50;4.90;;;;;;;0.97;93.83;97559.05;105594;1253;60552;-75
2023/03/12 03:44:55;;;;;;;1.90;1.40;;;;;;;1.00;93.99;97566.83;105609;1256;73123;-75
2023/03/12 03:47:22;;;;;;;2.60;2.10;;;;;;;0.94;94.19;97571.86;105337;1254;70549;-75
2023/03/12 03:49:49;;;;;;;2.10;1.70;;;;;;;0.82;93.70;97575.98;106002;1254;73655;-74
2023/03/12 03:52:16;;;;;;;2.00;1.60;;;;;;;0.77;93.09;97579.48;105572;1254;60456;-74
2023/03/12 03:54:43;;;;;;;3.40;2.70;;;;;;;0.72;91.89;97574.51;105776;1253;60436;-74
2023/03/12 03:57:10;;;;;;;8.60;6.20;;;;;;;0.55;91.81;97576.15;105730;1257;74790;-77
2023/03/12 03:59:43;;;;;;;5.50;3.10;;;;;;;0.38;92.07;97586.45;105962;1254;69732;-74
2023/03/12 04:02:10;;;;;;;3.60;2.00;;;;;;;0.31;92.42;97589.56;105636;1255;71536;-74
2023/03/12 04:04:37;;;;;;;3.80;2.30;;;;;;;0.35;92.39;97597.88;106013;1257;60371;-72
2023/03/12 04:07:07;;;;;;;3.20;2.30;;;;;;;0.26;92.07;97606.48;105567;1254;60310;-75
2023/03/12 04:09:35;;;;;;;3.30;2.10;;;;;;;0.11;92.39;97614.27;105641;1258;74468;-75
2023/03/12 04:12:04;;;;;;;3.90;2.90;;;;;;;0.01;92.63;97616.16;105654;1255;70683;-72
2023/03/12 04:14:32;;;;;;;4.20;2.90;;;;;;;-0.00;92.59;97624.25;105536;1257;72753;-72
2023/03/12 04:16:59;;;;;;;3.70;2.50;;;;;;;-0.09;92.92;97627.35;105525;1254;61612;-74
2023/03/12 04:19:26;;;;;;;2.90;2.30;;;;;;;-0.19;93.49;97634.61;105546;1254;60883;-73
2023/03/12 04:21:53;;;;;;;2.80;1.90;;;;;;;-0.24;94.21;97634.98;105696;1259;74766;-70
2023/03/12 04:24:21;;;;;;;2.30;1.80;;;;;;;-0.17;94.05;97641.41;105531;1257;69425;-72
2023/03/12 04:26:48;;;;;;;2.80;2.30;;;;;;;-0.13;93.79;97656.30;106809;1257;72253;-71
2023/03/12 04:29:17;;;;;;;2.90;1.80;;;;;;;-0.20;94.00;97657.34;107421;1254;60309;-72
2023/03/12 04:31:44;;;;;;;2.50;1.90;;;;;;;-0.28;94.33;97664.02;105938;1257;60450;-74
2023/03/12 04:34:12;;;;;;;2.70;2.10;;;;;;;-0.25;94.37;97670.20;106231;1254;73708;-75
2023/03/12 04:36:41;;;;;;;2.20;2.00;;;;;;;-0.20;94.30;97680.44;106035;1254;71355;-75
2023/03/12 04:39:08;;;;;;;2.90;2.10;;;;;;;-0.25;94.22;97683.34;105901;1260;72448;-76
2023/03/12 04:41:36;;;;;;;3.30;2.40;;;;;;;-0.35;94.47;97688.53;105978;1260;60434;-76
2023/03/12 04:44:08;;;;;;;2.70;1.90;;;;;;;-0.37;94.70;97690.85;105768;1260;59705;-76
2023/03/12 04:46:39;;;;;;;3.20;2.60;;;;;;;-0.29;94.34;97696.98;105978;1257;71835;-77
2023/03/12 04:49:06;;;;;;;3.70;2.50;;;;;;;-0.29;94.46;97707.47;105874;1255;71380;-74
2023/03/12 04:51:34;;;;;;;3.40;2.70;;;;;;;-0.40;94.43;97713.94;106127;1254;72907;-73
2023/03/12 04:56:08;;;;;;;3.60;2.70;;;;;;;-0.43;94.75;97716.92;102379;1297;601121;-75
2023/03/12 04:58:37;;;;;;;2.70;2.40;;;;;;;-0.40;94.51;97721.05;105692;1260;59497;-74
2023/03/12 05:01:06;;;;;;;3.40;2.70;;;;;;;-0.46;94.24;97729.27;105187;1264;59538;-76
2023/03/12 05:03:34;;;;;;;3.00;1.90;;;;;;;-0.54;94.31;97723.63;105595;1260;71014;-77
2023/03/12 05:06:03;;;;;;;3.30;2.30;;;;;;;-0.49;94.50;97734.83;105615;1260;70622;-77
2023/03/12 05:08:40;;;;;;;3.60;2.90;;;;;;;-0.49;94.24;97736.36;105883;1257;172872;-76
2023/03/12 05:11:12;;;;;;;3.60;2.80;;;;;;;-0.60;93.91;97734.91;106242;1256;59486;-77
2023/03/12 05:13:40;;;;;;;3.40;2.20;;;;;;;-0.59;94.25;97735.40;105787;1253;60018;-77
2023/03/12 05:16:10;;;;;;;2.40;2.00;;;;;;;-0.54;94.04;97744.80;105717;1258;71390;-78
2023/03/12 05:18:42;;;;;;;3.90;2.60;;;;;;;-0.62;94.21;97745.38;105911;1253;69404;-79
2023/03/12 05:21:12;;;;;;;3.70;2.20;;;;;;;-0.67;94.17;97759.42;109255;1253;73652;-77
2023/03/12 05:23:41;;;;;;;2.50;2.00;;;;;;;-0.62;93.89;97767.42;109237;1253;60754;-78
2023/03/12 05:26:17;;;;;;;4.40;2.90;;;;;;;-0.53;93.74;97781.24;106429;1253;60079;-79
2023/03/12 05:28:46;;;;;;;2.90;2.50;;;;;;;-0.54;93.93;97784.30;106451;1253;72551;-79
2023/03/12 05:31:14;;;;;;;3.70;2.40;;;;;;;-0.59;93.92;97795.59;105987;1259;69153;-79
2023/03/12 05:33:43;;;;;;;2.10;1.60;;;;;;;-0.57;93.58;97813.80;105800;1254;72342;-75
2023/03/12 05:36:12;;;;;;;3.20;2.50;;;;;;;-0.53;93.43;97821.26;106043;1253;59764;-78
2023/03/12 05:38:41;;;;;;;3.50;2.60;;;;;;;-0.54;94.01;97830.93;105652;1254;60264;-80
2023/03/12 05:41:30;;;;;;;3.50;2.80;;;;;;;-0.57;94.27;97845.98;106051;1253;71388;-80
2023/03/12 05:44:01;;;;;;;2.40;2.10;;;;;;;-0.61;93.73;97853.11;105927;1253;70499;-83
2023/03/12 05:46:30;;;;;;;3.70;2.80;;;;;;;-0.55;93.25;97860.38;105944;1259;74402;-76
2023/03/12 05:48:59;;;;;;;5.10;3.30;;;;;;;-0.55;92.98;97867.84;106064;1253;60472;-79
2023/03/12 05:51:28;;;;;;;3.30;2.80;;;;;;;-0.63;93.49;97872.40;105815;1253;59753;-77
2023/03/12 05:53:56;;;;;;;12.30;9.50;;;;;;;-0.68;93.35;97885.23;105818;1253;71574;-77
2023/03/12 05:56:24;;;;;;;5.90;4.10;;;;;;;-0.62;93.33;97889.85;105924;1253;70565;-77
2023/03/12 05:58:52;;;;;;;5.20;3.40;;;;;;;-0.55;93.03;97888.95;105997;1259;73530;-79
2023/03/12 06:01:25;;;;;;;15.60;12.50;;;;;;;-0.56;93.31;97894.42;106087;1253;59723;-76
2023/03/12 06:03:55;;;;;;;10.60;7.00;;;;;;;-0.57;93.57;97897.11;106160;1254;59675;-75
2023/03/12 06:06:24;;;;;;;5.10;3.60;;;;;;;-0.56;93.47;97910.75;106196;1258;74033;-75
2023/03/12 06:08:54;;;;;;;4.10;2.40;;;;;;;-0.49;92.93;97914.46;106362;1258;70562;-77
2023/03/12 06:11:22;;;;;;;3.50;2.60;;;;;;;-0.45;92.85;97922.70;106085;1256;71686;-76
2023/03/12 06:13:51;;;;;;;4.90;4.20;;;;;;;-0.49;92.87;97930.55;107179;1254;60317;-75
2023/03/12 06:16:21;;;;;;;4.20;2.40;;;;;;;-0.54;92.89;97934.02;109197;1253;60328;-74
2023/03/12 06:18:56;;;;;;;2.90;1.80;;;;;;;-0.47;92.89;97941.52;108922;1253;72366;-75
2023/03/12 06:21:34;;;;;;;2.80;2.20;;;;;;;-0.40;92.57;97950.95;108425;1256;69947;-76
2023/03/12 06:24:04;;;;;;;2.90;2.10;;;;;;;-0.43;92.57;97955.58;107938;1254;72658;-76
2023/03/12 06:26:48;;;;;;;2.20;1.80;;;;;;;-0.47;92.54;97961.23;106536;1253;61348;-77
2023/03/12 06:29:16;;;;;;;1.70;1.40;;;;;;;-0.42;92.20;97973.95;106127;1258;59653;-78
2023/03/12 06:31:44;;;;;;;3.00;2.30;;;;;;;-0.40;92.02;97984.09;105549;1257;72046;-76
2023/03/12 06:34:12;;;;;;;3.00;2.00;;;;;;;-0.50;92.07;97988.25;106785;1253;71014;-77
2023/03/12 06:36:41;;;;;;;3.10;1.80;;;;;;;-0.56;92.30;98000.83;105726;1258;73903;-77
2023/03/12 06:39:09;;;;;;;3.40;1.90;;;;;;;-0.52;92.26;98007.94;105468;1254;60113;-77
2023/03/12 06:41:40;;;;;;;2.80;2.10;;;;;;;-0.50;92.01;98016.41;105882;1254;63023;-77
2023/03/12 06:44:08;;;;;;;3.70;2.10;;;;;;;-0.59;92.01;98020.85;105954;1256;73534;-77
2023/03/12 06:46:39;;;;;;;2.60;1.90;;;;;;;-0.66;92.60;98027.23;105844;1254;70637;-78
2023/03/12 06:49:10;;;;;;;2.00;1.60;;;;;;;-0.66;92.55;98038.73;105853;1259;71898;-74
2023/03/12 06:51:38;;;;;;;3.20;1.90;;;;;;;-0.55;92.53;98043.20;105876;1258;59691;-76
2023/03/12 06:54:07;;;;;;;2.20;1.30;;;;;;;-0.52;92.66;98050.23;105853;1253;61523;-77
2023/03/12 06:56:35;;;;;;;2.40;1.70;;;;;;;-0.56;92.76;98054.35;105980;1254;73364;-79
2023/03/12 06:59:05;;;;;;;1.10;1.00;;;;;;;-0.60;92.76;98065.34;105883;1259;70201;-77
2023/03/12 07:01:33;;;;;;;2.40;1.30;;;;;;;-0.53;92.50;98067.61;105882;1253;73934;-76
2023/03/12 07:04:01;;;;;;;2.10;1.60;;;;;;;-0.44;92.19;98076.94;105963;1259;59616;-78
2023/03/12 07:06:30;;;;;;;3.00;1.60;;;;;;;-0.49;92.01;98083.84;105987;1253;59637;-78
2023/03/12 07:09:04;;;;;;;1.80;1.00;;;;;;;-0.60;91.88;98092.30;107754;1253;74067;-77
2023/03/12 07:11:35;;;;;;;1.30;1.00;;;;;;;-0.54;92.42;98092.42;109330;1253;68900;-77
2023/03/12 07:14:03;;;;;;;1.60;1.20;;;;;;;-0.49;92.21;98100.15;108288;1256;73121;-78
2023/03/12 07:16:35;;;;;;;2.20;1.30;;;;;;;-0.51;92.26;98104.35;106919;1254;60560;-76
2023/03/12 07:19:04;;;;;;;2.10;1.00;;;;;;;-0.52;92.12;98117.48;106504;1253;60845;-77
2023/03/12 07:21:33;;;;;;;3.90;1.90;;;;;;;-0.43;92.28;98122.25;105821;1259;72293;-77
2023/03/12 07:24:06;;;;;;;3.10;1.30;;;;;;;-0.33;92.30;98126.27;105942;1254;71585;-77
2023/03/12 07:26:35;;;;;;;3.60;1.40;;;;;;;-0.34;91.36;98129.94;105972;1253;71326;-76
2023/03/12 07:29:03;;;;;;;2.00;1.10;;;;;;;-0.38;91.55;98139.00;105842;1254;60503;-75
2023/03/12 07:31:32;;;;;;;1.90;1.20;;;;;;;-0.33;91.21;98144.66;105863;1255;60289;-75
2023/03/12 07:34:01;;;;;;;2.40;1.50;;;;;;;-0.29;90.50;98157.54;106282;1257;73243;-77
2023/03/12 07:36:35;;;;;;;1.60;1.30;;;;;;;-0.36;91.10;98157.12;106064;1254;70404;-73
2023/03/12 07:39:03;;;;;;;2.00;1.40;;;;;;;-0.40;91.62;98165.13;105627;1254;72926;-75
2023/03/12 07:41:31;;;;;;;2.90;1.70;;;;;;;-0.34;91.74;98169.92;105838;1253;60034;-77
2023/03/12 07:43:59;;;;;;;3.80;2.40;;;;;;;-0.20;91.10;98179.66;105959;1253;60681;-76
2023/03/12 07:46:27;;;;;;;2.70;1.90;;;;;;;-0.22;90.64;98185.73;106039;1258;74303;-74
2023/03/12 07:48:56;;;;;;;2.00;1.40;;;;;;;-0.30;90.49;98188.59;105820;1254;71550;-74
2023/03/12 07:51:24;;;;;;;2.70;1.50;;;;;;;-0.31;90.78;98189.85;105650;1253;75501;-74
2023/03/12 07:53:52;;;;;;;4.90;2.40;;;;;;;-0.22;89.80;98202.92;106089;1254;60515;-77
2023/03/12 07:56:20;;;;;;;3.10;2.20;;;;;;;-0.20;90.24;98205.10;106056;1254;59622;-77
2023/03/12 07:58:49;;;;;;;3.20;2.20;;;;;;;-0.19;89.79;98206.88;106160;1258;72970;-75
2023/03/12 08:01:17;;;;;;;3.90;2.40;;;;;;;-0.06;89.68;98220.19;106119;1254;71229;-77
2023/03/12 08:03:46;;;;;;;5.30;2.70;;;;;;;0.12;88.96;98224.52;107773;1253;70753;-76
2023/03/12 08:06:14;;;;;;;3.90;1.80;;;;;;;0.19;88.57;98230.11;108537;1253;59267;-74
2023/03/12 08:08:43;;;;;;;2.60;1.60;;;;;;;0.24;87.57;98235.45;106898;1261;59654;-73
2023/03/12 08:11:11;;;;;;;3.90;2.20;;;;;;;0.27;86.49;98244.92;106484;1253;71270;-73
2023/03/12 08:13:41;;;;;;;2.80;1.60;;;;;;;0.36;85.57;98252.11;105942;1259;69590;-76
2023/03/12 08:16:13;;;;;;;2.40;1.60;;;;;;;0.35;85.75;98255.27;105662;1253;75018;-73
2023/03/12 08:18:43;;;;;;;2.40;1.80;;;;;;;0.33;85.59;98265.10;105938;1254;59903;-76
2023/03/12 08:21:13;;;;;;;6.70;4.50;;;;;;;0.31;84.60;98270.52;105754;1254;60034;-75
2023/03/12 08:23:44;;;;;;;6.10;3.60;;;;;;;0.29;83.96;98274.17;105844;1257;73636;-76
2023/03/12 08:26:14;;;;;;;2.40;1.50;;;;;;;0.36;82.68;98281.52;105887;1254;71344;-76
2023/03/12 08:28:42;;;;;;;4.60;1.60;;;;;;;0.33;81.51;98283.17;105950;1259;71679;-76
2023/03/12 08:31:10;;;;;;;2.70;1.50;;;;;;;0.24;81.57;98287.82;105983;1259;60541;-76
2023/03/12 08:33:42;;;;;;;2.20;1.50;;;;;;;0.18;81.55;98290.05;105949;1254;61322;-74
2023/03/12 08:36:10;;;;;;;3.70;1.50;;;;;;;0.17;81.39;98293.51;105548;1258;73081;-75
2023/03/12 08:38:39;;;;;;;2.30;1.50;;;;;;;0.19;80.28;98296.29;105872;1257;69403;-74
2023/03/12 08:41:07;;;;;;;2.90;1.80;;;;;;;0.25;80.78;98301.27;105327;1257;72369;-74
2023/03/12 08:43:35;;;;;;;3.30;2.20;;;;;;;0.25;80.14;98303.98;105786;1256;59793;-76
2023/03/12 08:46:03;;;;;;;6.40;3.00;;;;;;;0.21;80.01;98314.91;106037;1254;61956;-75
2023/03/12 08:48:33;;;;;;;3.30;1.60;;;;;;;0.18;80.47;98323.56;105895;1259;73825;-74
2023/03/12 08:51:03;;;;;;;3.40;1.30;;;;;;;0.18;79.08;98326.50;106004;1257;70542;-73
2023/03/12 08:53:34;;;;;;;4.20;1.70;;;;;;;0.29;79.16;98335.77;105412;1259;73364;-74
2023/03/12 08:56:03;;;;;;;3.80;1.70;;;;;;;0.39;78.01;98338.21;105892;1259;59833;-77
2023/03/12 08:58:31;;;;;;;2.50;1.10;;;;;;;0.39;78.30;98337.01;107901;1253;59580;-75
2023/03/12 09:00:59;;;;;;;3.50;2.10;;;;;;;0.41;77.92;98342.59;109199;1253;72220;-76
2023/03/12 09:03:28;;;;;;;3.20;1.70;;;;;;;0.46;79.45;98345.29;107276;1258;70287;-76
2023/03/12 09:06:04;;;;;;;2.30;1.20;;;;;;;0.58;79.12;98347.63;106183;1259;70466;-76
2023/03/12 09:08:35;;;;;;;3.80;1.50;;;;;;;0.75;77.30;98356.41;105751;1254;60895;-74
2023/03/12 09:11:04;;;;;;;2.90;1.70;;;;;;;0.80;78.82;98362.41;105536;1255;60639;-75
2023/03/12 09:13:32;;;;;;;4.80;2.00;;;;;;;0.88;79.72;98370.56;105984;1259;72162;-75
2023/03/12 09:16:21;;;;;;;6.30;1.70;;;;;;;1.09;82.52;98374.56;105815;1254;68481;-74
2023/03/12 09:18:49;;;;;;;5.20;1.40;;;;;;;1.32;81.53;98383.78;106098;1259;72856;-76
2023/03/12 09:21:20;;;;;;;2.20;1.20;;;;;;;1.49;79.11;98379.83;105807;1254;60524;-75
2023/03/12 09:23:49;;;;;;;2.00;1.10;;;;;;;1.46;77.53;98390.52;105735;1254;61903;-74
2023/03/12 09:26:17;;;;;;;5.10;1.50;;;;;;;1.43;79.96;98393.77;105778;1259;74787;-74
2023/03/12 09:28:48;;;;;;;3.60;1.30;;;;;;;1.44;78.18;98392.74;105624;1257;71426;-76
2023/03/12 09:31:16;;;;;;;2.10;1.40;;;;;;;1.43;79.40;98402.30;105330;1259;73745;-76
2023/03/12 09:33:44;;;;;;;2.20;1.30;;;;;;;1.42;78.77;98409.27;105848;1254;60670;-75
2023/03/12 09:36:12;;;;;;;2.60;1.40;;;;;;;1.42;80.37;98417.45;105967;1257;60453;-75
2023/03/12 09:38:40;;;;;;;2.70;1.20;;;;;;;1.54;79.65;98430.90;105937;1254;73977;-75
2023/03/12 09:41:26;;;;;;;3.10;1.40;;;;;;;1.60;80.69;98429.84;105809;1259;71497;-73
2023/03/12 09:44:03;;;;;;;3.40;1.90;;;;;;;1.63;80.92;98440.22;105891;1259;73998;-76
2023/03/12 09:46:40;;;;;;;4.30;2.70;;;;;;;1.65;78.41;98441.13;105881;1257;60341;-74
2023/03/12 09:49:45;;;;;;;6.10;2.10;;;;;;;1.57;75.95;98445.64;105910;1260;60411;-75
2023/03/12 09:52:21;;;;;;;3.60;1.70;;;;;;;1.47;77.09;98457.30;106216;1259;74095;-75
2023/03/12 09:55:22;;;;;;;3.90;1.90;;;;;;;1.41;77.42;98458.46;107923;1258;70401;-76
2023/03/12 09:57:50;;;;;;;3.40;2.00;;;;;;;1.58;76.49;98466.36;107673;1258;73655;-74
2023/03/12 10:00:20;;;;;;;4.40;2.20;;;;;;;1.58;73.80;98467.86;106820;1259;60544;-77
2023/03/12 10:03:04;;;;;;;2.00;1.30;;;;;;;1.58;73.48;98472.48;106547;1258;60425;-75
2023/03/12 10:06:02;;;;;;;2.90;1.90;;;;;;;1.75;76.43;98479.74;106202;1255;74040;-76
2023/03/12 10:08:56;;;;;;;4.10;1.90;;;;;;;2.20;75.78;98481.73;105916;1259;70025;-75
2023/03/12 10:11:54;;;;;;;4.40;1.70;;;;;;;2.68;75.57;98490.02;105813;1257;71124;-75
2023/03/12 10:14:42;;;;;;;3.30;2.40;;;;;;;3.20;74.67;98493.58;105943;1260;60557;-72
2023/03/12 10:17:25;;;;;;;4.50;2.80;;;;;;;3.44;74.47;98498.75;106277;1254;61300;-74
2023/03/12 10:20:01;;;;;;;4.60;2.50;;;;;;;3.45;70.84;98505.20;106305;1259;76057;-77
2023/03/12 10:23:10;;;;;;;4.00;2.20;;;;;;;3.29;68.73;98515.73;106649;1259;69320;-74
2023/03/12 10:25:47;;;;;;;3.60;1.50;;;;;;;3.00;67.32;98516.34;107170;1257;73138;-75
2023/03/12 10:28:21;;;;;;;3.80;2.00;;;;;;;2.81;69.14;98523.89;107176;1254;60507;-74
2023/03/12 10:30:52;;;;;;;5.00;2.40;;;;;;;2.74;69.62;98530.52;106173;1255;61744;-74
2023/03/12 10:33:24;;;;;;;3.30;2.10;;;;;;;2.79;69.78;98536.40;106189;1254;74401;-75
2023/03/12 10:35:53;;;;;;;6.60;2.90;;;;;;;2.85;69.30;98538.58;106070;1259;71661;-72
2023/03/12 10:38:27;;;;;;;2.80;1.80;;;;;;;2.73;68.67;98539.53;105607;1260;73277;-74
2023/03/12 10:40:55;;;;;;;4.90;2.00;;;;;;;2.53;68.54;98539.41;105893;1258;60541;-74
2023/03/12 10:43:24;;;;;;;3.20;1.90;;;;;;;2.41;69.45;98541.27;105707;1259;60531;-72
2023/03/12 10:46:20;;;;;;;4.40;2.40;;;;;;;2.33;69.42;98540.70;105890;1259;73899;-74
2023/03/12 10:48:51;;;;;;;3.30;2.00;;;;;;;2.27;69.81;98544.79;107822;1257;69085;-74
2023/03/12 10:51:19;;;;;;;3.40;2.00;;;;;;;2.29;68.69;98544.27;108117;1254;72678;-75
2023/03/12 10:53:49;;;;;;;4.00;2.40;;;;;;;2.20;68.82;98542.35;106126;1257;60890;-75
2023/03/12 10:56:18;;;;;;;5.50;2.40;;;;;;;2.08;69.62;98539.39;105966;1258;60352;-74
2023/03/12 10:58:48;;;;;;;2.70;1.60;;;;;;;2.02;68.81;98547.61;105943;1259;72863;-77
2023/03/12 11:01:21;;;;;;;5.30;2.30;;;;;;;2.04;68.83;98550.23;106118;1258;70098;-78
2023/03/12 11:03:50;;;;;;;3.20;1.90;;;;;;;2.00;69.13;98556.05;105988;1259;73567;-77
2023/03/12 11:06:27;;;;;;;3.60;1.70;;;;;;;2.10;70.75;98559.18;105922;1254;62091;-75
2023/03/12 11:09:08;;;;;;;3.90;2.10;;;;;;;2.37;71.20;98565.80;105893;1259;60533;-76
2023/03/12 11:11:46;;;;;;;3.80;2.20;;;;;;;2.85;69.74;98565.01;105923;1259;74052;-75
2023/03/12 11:14:21;;;;;;;3.40;1.90;;;;;;;3.51;71.44;98559.05;105834;1254;71421;-77
2023/03/12 11:16:50;;;;;;;4.00;2.40;;;;;;;4.35;69.69;98562.68;105973;1257;72587;-74
2023/03/12 11:19:32;;;;;;;3.10;2.20;;;;;;;5.08;66.59;98566.80;105931;1259;60620;-75
2023/03/12 11:22:07;;;;;;;2.60;1.80;;;;;;;5.36;64.46;98570.70;106121;1265;60530;-75
2023/03/12 11:24:35;;;;;;;3.60;2.10;;;;;;;5.27;64.11;98577.38;106102;1259;71731;-76
2023/03/12 11:27:05;;;;;;;4.60;2.30;;;;;;;5.21;65.10;98576.98;106032;1260;70390;-74
2023/03/12 11:29:39;;;;;;;5.20;2.10;;;;;;;5.14;63.66;98577.16;106430;1259;71450;-75
2023/03/12 11:32:28;;;;;;;4.60;2.70;;;;;;;4.83;63.01;98579.41;106073;1254;61533;-74
2023/03/12 11:34:57;;;;;;;4.10;1.90;;;;;;;4.56;64.34;98584.62;106228;1267;60412;-75
2023/03/12 11:37:59;;;;;;;3.30;2.40;;;;;;;4.63;65.01;98584.21;106057;1258;71469;-76
2023/03/12 11:40:59;;;;;;;5.00;2.70;;;;;;;4.95;65.95;98583.80;105934;1259;68977;-77
2023/03/12 11:43:37;;;;;;;4.40;2.60;;;;;;;5.37;65.77;98588.11;108427;1254;71931;-76
2023/03/12 11:46:20;;;;;;;4.10;2.60;;;;;;;5.85;66.23;98585.56;107581;1255;60542;-76
2023/03/12 11:49:20;;;;;;;3.60;2.10;;;;;;;6.39;62.81;98584.82;105921;1259;61607;-75
2023/03/12 11:51:52;;;;;;;3.90;2.20;;;;;;;6.72;63.68;98587.66;106188;1255;74959;-75
2023/03/12 11:54:42;;;;;;;6.10;2.10;;;;;;;6.87;62.28;98586.33;106024;1260;71739;-75